sensor_id;sensor_type;location;lat;lon;timestamp;temperature;humidity
15160;DHT22;7680;48.800;9.680;2022-07-04T00:01:51;19.30;99.90
15160;DHT22;7680;48.800;9.680;2022-07-04T00:04:24;19.30;99.90
15160;DHT22;7680;48.800;9.680;2022-07-04T00:06:59;19.20;99.90
15160;DHT22;7680;48.800;9.680;2022-07-04T00:09:32;19.20;99.90
15160;DHT22;7680;48.800;9.680;2022-07-04T00:12:05;19.10;99.90
15160;DHT22;7680;48.800;9.680;2022-07-04T00:14:39;19.00;99.90
15160;DHT22;7680;48.800;9.680;2022-07-04T00:17:13;19.00;99.90
15160;DHT22;7680;48.800;9.680;2022-07-04T00:19:46;19.00;99.90
15160;DHT22;7680;48.800;9.680;2022-07-04T00:22:20;19.10;99.90
15160;DHT22;7680;48.800;9.680;2022-07-04T00:24:53;19.00;99.90
15160;DHT22;7680;48.800;9.680;2022-07-04T00:27:27;19.00;99.90
15160;DHT22;7680;48.800;9.680;2022-07-04T00:30:00;19.00;99.90
15160;DHT22;7680;48.800;9.680;2022-07-04T00:32:33;19.00;99.90
15160;DHT22;7680;48.800;9.680;2022-07-04T00:35:07;18.90;99.90
15160;DHT22;7680;48.800;9.680;2022-07-04T00:37:42;18.90;99.90
15160;DHT22;7680;48.800;9.680;2022-07-04T00:40:15;19.00;99.90
15160;DHT22;7680;48.800;9.680;2022-07-04T00:42:48;19.00;99.90
15160;DHT22;7680;48.800;9.680;2022-07-04T00:45:22;18.90;99.90
15160;DHT22;7680;48.800;9.680;2022-07-04T00:47:55;19.00;99.90
15160;DHT22;7680;48.800;9.680;2022-07-04T00:50:28;19.00;99.90
15160;DHT22;7680;48.800;9.680;2022-07-04T00:53:03;19.00;99.90
15160;DHT22;7680;48.800;9.680;2022-07-04T00:55:36;18.80;99.90
15160;DHT22;7680;48.800;9.680;2022-07-04T00:58:12;18.80;99.90
15160;DHT22;7680;48.800;9.680;2022-07-04T01:00:46;18.70;99.90
15160;DHT22;7680;48.800;9.680;2022-07-04T01:03:19;18.80;99.90
15160;DHT22;7680;48.800;9.680;2022-07-04T01:05:53;18.80;99.90
15160;DHT22;7680;48.800;9.680;2022-07-04T01:08:27;18.80;99.90
15160;DHT22;7680;48.800;9.680;2022-07-04T01:11:01;18.80;99.90
15160;DHT22;7680;48.800;9.680;2022-07-04T01:13:34;18.70;99.90
15160;DHT22;7680;48.800;9.680;2022-07-04T01:16:08;18.70;99.90
15160;DHT22;7680;48.800;9.680;2022-07-04T01:18:42;18.70;99.90
15160;DHT22;7680;48.800;9.680;2022-07-04T01:21:16;18.70;99.90
15160;DHT22;7680;48.800;9.680;2022-07-04T01:23:49;18.70;99.90
15160;DHT22;7680;48.800;9.680;2022-07-04T01:26:23;18.70;99.90
15160;DHT22;7680;48.800;9.680;2022-07-04T01:28:56;18.70;99.90
15160;DHT22;7680;48.800;9.680;2022-07-04T01:31:29;18.60;99.90
15160;DHT22;7680;48.800;9.680;2022-07-04T01:34:02;18.60;99.90
15160;DHT22;7680;48.800;9.680;2022-07-04T01:36:37;18.60;99.90
15160;DHT22;7680;48.800;9.680;2022-07-04T01:39:10;18.70;99.90
15160;DHT22;7680;48.800;9.680;2022-07-04T01:41:43;18.60;99.90
15160;DHT22;7680;48.800;9.680;2022-07-04T01:44:16;18.60;99.90
15160;DHT22;7680;48.800;9.680;2022-07-04T01:46:49;18.50;99.90
15160;DHT22;7680;48.800;9.680;2022-07-04T01:49:23;18.50;99.90
15160;DHT22;7680;48.800;9.680;2022-07-04T01:51:57;18.40;99.90
15160;DHT22;7680;48.800;9.680;2022-07-04T01:54:30;18.40;99.90
15160;DHT22;7680;48.800;9.680;2022-07-04T01:57:04;18.20;99.90
15160;DHT22;7680;48.800;9.680;2022-07-04T01:59:38;18.20;99.90
15160;DHT22;7680;48.800;9.680;2022-07-04T02:02:29;18.10;99.90
15160;DHT22;7680;48.800;9.680;2022-07-04T02:05:02;18.20;99.90
15160;DHT22;7680;48.800;9.680;2022-07-04T02:07:37;18.20;99.90
15160;DHT22;7680;48.800;9.680;2022-07-04T02:10:11;18.20;99.90
15160;DHT22;7680;48.800;9.680;2022-07-04T02:12:44;18.20;99.90
15160;DHT22;7680;48.800;9.680;2022-07-04T02:15:38;18.20;99.90
15160;DHT22;7680;48.800;9.680;2022-07-04T02:18:12;18.30;99.90
15160;DHT22;7680;48.800;9.680;2022-07-04T02:20:46;18.30;99.90
15160;DHT22;7680;48.800;9.680;2022-07-04T02:23:20;18.30;99.90
15160;DHT22;7680;48.800;9.680;2022-07-04T02:25:53;18.40;99.90
15160;DHT22;7680;48.800;9.680;2022-07-04T02:28:26;18.40;99.90
15160;DHT22;7680;48.800;9.680;2022-07-04T02:31:00;18.30;99.90
15160;DHT22;7680;48.800;9.680;2022-07-04T02:33:33;18.30;99.90
15160;DHT22;7680;48.800;9.680;2022-07-04T02:36:06;18.30;99.90
15160;DHT22;7680;48.800;9.680;2022-07-04T02:38:41;18.30;99.90
15160;DHT22;7680;48.800;9.680;2022-07-04T02:41:14;18.20;99.90
15160;DHT22;7680;48.800;9.680;2022-07-04T02:43:47;18.20;99.90
15160;DHT22;7680;48.800;9.680;2022-07-04T02:46:21;18.30;99.90
15160;DHT22;7680;48.800;9.680;2022-07-04T02:48:54;18.30;99.90
15160;DHT22;7680;48.800;9.680;2022-07-04T02:51:28;18.40;99.90
15160;DHT22;7680;48.800;9.680;2022-07-04T02:54:03;18.30;99.90
15160;DHT22;7680;48.800;9.680;2022-07-04T02:56:36;18.30;99.90
15160;DHT22;7680;48.800;9.680;2022-07-04T02:59:09;18.30;99.90
15160;DHT22;7680;48.800;9.680;2022-07-04T03:01:42;18.30;99.90
15160;DHT22;7680;48.800;9.680;2022-07-04T03:04:15;18.30;99.90
15160;DHT22;7680;48.800;9.680;2022-07-04T03:06:49;18.20;99.90
15160;DHT22;7680;48.800;9.680;2022-07-04T03:09:23;18.00;99.90
15160;DHT22;7680;48.800;9.680;2022-07-04T03:11:58;18.00;99.90
15160;DHT22;7680;48.800;9.680;2022-07-04T03:14:31;18.10;99.90
15160;DHT22;7680;48.800;9.680;2022-07-04T03:17:04;18.10;99.90
15160;DHT22;7680;48.800;9.680;2022-07-04T03:19:38;18.10;99.90
15160;DHT22;7680;48.800;9.680;2022-07-04T03:22:11;18.10;99.90
15160;DHT22;7680;48.800;9.680;2022-07-04T03:24:45;18.10;99.90
15160;DHT22;7680;48.800;9.680;2022-07-04T03:27:19;18.10;99.90
15160;DHT22;7680;48.800;9.680;2022-07-04T03:29:52;18.00;99.90
15160;DHT22;7680;48.800;9.680;2022-07-04T03:32:25;18.00;99.90
15160;DHT22;7680;48.800;9.680;2022-07-04T03:34:58;18.00;99.90
15160;DHT22;7680;48.800;9.680;2022-07-04T03:37:31;18.10;99.90
15160;DHT22;7680;48.800;9.680;2022-07-04T03:40:08;18.20;99.90
15160;DHT22;7680;48.800;9.680;2022-07-04T03:42:42;18.20;99.90
15160;DHT22;7680;48.800;9.680;2022-07-04T03:45:15;18.20;99.90
15160;DHT22;7680;48.800;9.680;2022-07-04T03:47:48;18.20;99.90
15160;DHT22;7680;48.800;9.680;2022-07-04T03:50:22;18.20;99.90
15160;DHT22;7680;48.800;9.680;2022-07-04T03:52:55;18.20;99.90
15160;DHT22;7680;48.800;9.680;2022-07-04T03:55:30;18.20;99.90
15160;DHT22;7680;48.800;9.680;2022-07-04T03:58:03;18.20;99.90
15160;DHT22;7680;48.800;9.680;2022-07-04T04:00:36;18.20;99.90
15160;DHT22;7680;48.800;9.680;2022-07-04T04:03:10;18.20;99.90
15160;DHT22;7680;48.800;9.680;2022-07-04T04:05:57;18.20;99.90
15160;DHT22;7680;48.800;9.680;2022-07-04T04:08:30;18.20;99.90
15160;DHT22;7680;48.800;9.680;2022-07-04T04:11:04;18.20;99.90
15160;DHT22;7680;48.800;9.680;2022-07-04T04:13:38;18.20;99.90
15160;DHT22;7680;48.800;9.680;2022-07-04T04:16:11;18.20;99.90
15160;DHT22;7680;48.800;9.680;2022-07-04T04:18:44;18.30;99.90
15160;DHT22;7680;48.800;9.680;2022-07-04T04:21:17;18.30;99.90
15160;DHT22;7680;48.800;9.680;2022-07-04T04:23:50;18.30;99.90
15160;DHT22;7680;48.800;9.680;2022-07-04T04:26:25;18.30;99.90
15160;DHT22;7680;48.800;9.680;2022-07-04T04:28:58;18.30;99.90
15160;DHT22;7680;48.800;9.680;2022-07-04T04:31:31;18.30;99.90
15160;DHT22;7680;48.800;9.680;2022-07-04T04:34:04;18.30;99.90
15160;DHT22;7680;48.800;9.680;2022-07-04T04:36:37;18.30;99.90
15160;DHT22;7680;48.800;9.680;2022-07-04T04:39:11;18.30;99.90
15160;DHT22;7680;48.800;9.680;2022-07-04T04:41:46;18.30;99.90
15160;DHT22;7680;48.800;9.680;2022-07-04T04:44:19;18.30;99.90
15160;DHT22;7680;48.800;9.680;2022-07-04T04:46:52;18.30;99.90
15160;DHT22;7680;48.800;9.680;2022-07-04T04:49:26;18.30;99.90
15160;DHT22;7680;48.800;9.680;2022-07-04T04:51:59;18.30;99.90
15160;DHT22;7680;48.800;9.680;2022-07-04T04:54:32;18.40;99.90
15160;DHT22;7680;48.800;9.680;2022-07-04T04:57:07;18.50;99.90
15160;DHT22;7680;48.800;9.680;2022-07-04T04:59:40;18.50;99.90
15160;DHT22;7680;48.800;9.680;2022-07-04T05:02:13;18.60;99.90
15160;DHT22;7680;48.800;9.680;2022-07-04T05:04:47;18.60;99.90
15160;DHT22;7680;48.800;9.680;2022-07-04T05:07:20;18.60;99.90
15160;DHT22;7680;48.800;9.680;2022-07-04T05:09:54;18.60;99.90
15160;DHT22;7680;48.800;9.680;2022-07-04T05:12:32;18.70;99.90
15160;DHT22;7680;48.800;9.680;2022-07-04T05:15:10;18.90;99.90
15160;DHT22;7680;48.800;9.680;2022-07-04T05:17:43;19.00;99.90
15160;DHT22;7680;48.800;9.680;2022-07-04T05:20:17;19.10;99.90
15160;DHT22;7680;48.800;9.680;2022-07-04T05:22:50;19.10;99.90
15160;DHT22;7680;48.800;9.680;2022-07-04T05:25:23;19.10;99.90
15160;DHT22;7680;48.800;9.680;2022-07-04T05:27:58;19.20;99.90
15160;DHT22;7680;48.800;9.680;2022-07-04T05:30:32;19.30;99.90
15160;DHT22;7680;48.800;9.680;2022-07-04T05:33:05;19.40;99.90
15160;DHT22;7680;48.800;9.680;2022-07-04T05:35:38;19.50;99.90
15160;DHT22;7680;48.800;9.680;2022-07-04T05:38:11;19.50;99.90
15160;DHT22;7680;48.800;9.680;2022-07-04T05:40:44;19.50;99.90
15160;DHT22;7680;48.800;9.680;2022-07-04T05:43:19;19.70;99.90
15160;DHT22;7680;48.800;9.680;2022-07-04T05:45:53;19.70;99.90
15160;DHT22;7680;48.800;9.680;2022-07-04T05:48:26;19.70;99.90
15160;DHT22;7680;48.800;9.680;2022-07-04T05:50:59;19.70;99.90
15160;DHT22;7680;48.800;9.680;2022-07-04T05:53:33;19.70;99.90
15160;DHT22;7680;48.800;9.680;2022-07-04T05:56:06;19.70;99.90
15160;DHT22;7680;48.800;9.680;2022-07-04T05:58:41;19.90;99.90
15160;DHT22;7680;48.800;9.680;2022-07-04T06:01:14;19.90;99.90
15160;DHT22;7680;48.800;9.680;2022-07-04T06:03:47;20.00;99.90
15160;DHT22;7680;48.800;9.680;2022-07-04T06:06:21;20.10;99.90
15160;DHT22;7680;48.800;9.680;2022-07-04T06:08:54;20.20;99.90
15160;DHT22;7680;48.800;9.680;2022-07-04T06:11:27;20.40;99.90
15160;DHT22;7680;48.800;9.680;2022-07-04T06:14:01;20.60;99.90
15160;DHT22;7680;48.800;9.680;2022-07-04T06:16:34;20.80;99.90
15160;DHT22;7680;48.800;9.680;2022-07-04T06:19:08;21.00;99.90
15160;DHT22;7680;48.800;9.680;2022-07-04T06:21:41;21.30;99.90
15160;DHT22;7680;48.800;9.680;2022-07-04T06:24:14;21.60;99.90
15160;DHT22;7680;48.800;9.680;2022-07-04T06:26:48;21.90;99.90
15160;DHT22;7680;48.800;9.680;2022-07-04T06:29:23;21.90;99.90
15160;DHT22;7680;48.800;9.680;2022-07-04T06:31:56;22.00;99.90
15160;DHT22;7680;48.800;9.680;2022-07-04T06:34:29;22.10;99.90
15160;DHT22;7680;48.800;9.680;2022-07-04T06:37:20;22.10;99.90
15160;DHT22;7680;48.800;9.680;2022-07-04T06:39:53;22.30;99.90
15160;DHT22;7680;48.800;9.680;2022-07-04T06:42:26;22.30;99.90
15160;DHT22;7680;48.800;9.680;2022-07-04T06:45:01;22.40;99.90
15160;DHT22;7680;48.800;9.680;2022-07-04T06:47:34;22.40;99.90
15160;DHT22;7680;48.800;9.680;2022-07-04T06:50:08;22.30;99.90
15160;DHT22;7680;48.800;9.680;2022-07-04T06:53:02;22.20;99.90
15160;DHT22;7680;48.800;9.680;2022-07-04T06:55:37;22.30;99.90
15160;DHT22;7680;48.800;9.680;2022-07-04T06:58:11;22.40;99.90
15160;DHT22;7680;48.800;9.680;2022-07-04T07:00:46;22.40;99.90
15160;DHT22;7680;48.800;9.680;2022-07-04T07:03:19;22.50;99.90
15160;DHT22;7680;48.800;9.680;2022-07-04T07:05:53;22.50;99.90
15160;DHT22;7680;48.800;9.680;2022-07-04T07:08:31;22.60;99.90
15160;DHT22;7680;48.800;9.680;2022-07-04T07:11:05;22.80;99.90
15160;DHT22;7680;48.800;9.680;2022-07-04T07:13:50;22.90;99.90
15160;DHT22;7680;48.800;9.680;2022-07-04T07:16:25;22.90;99.90
15160;DHT22;7680;48.800;9.680;2022-07-04T07:18:58;23.00;99.90
15160;DHT22;7680;48.800;9.680;2022-07-04T07:21:31;23.00;99.80
15160;DHT22;7680;48.800;9.680;2022-07-04T07:24:05;23.20;99.60
15160;DHT22;7680;48.800;9.680;2022-07-04T07:26:38;23.10;99.60
15160;DHT22;7680;48.800;9.680;2022-07-04T07:29:11;23.10;99.60
15160;DHT22;7680;48.800;9.680;2022-07-04T07:31:46;23.00;99.70
15160;DHT22;7680;48.800;9.680;2022-07-04T07:34:19;23.00;99.80
15160;DHT22;7680;48.800;9.680;2022-07-04T07:36:52;23.00;99.90
15160;DHT22;7680;48.800;9.680;2022-07-04T07:39:25;23.00;99.70
15160;DHT22;7680;48.800;9.680;2022-07-04T07:41:59;23.10;99.90
15160;DHT22;7680;48.800;9.680;2022-07-04T07:44:32;23.50;99.80
15160;DHT22;7680;48.800;9.680;2022-07-04T07:47:07;23.90;98.80
15160;DHT22;7680;48.800;9.680;2022-07-04T07:49:44;24.20;97.70
15160;DHT22;7680;48.800;9.680;2022-07-04T07:52:19;24.40;96.60
15160;DHT22;7680;48.800;9.680;2022-07-04T07:54:58;24.10;96.80
15160;DHT22;7680;48.800;9.680;2022-07-04T07:57:32;23.90;97.20
15160;DHT22;7680;48.800;9.680;2022-07-04T08:00:07;23.70;97.60
15160;DHT22;7680;48.800;9.680;2022-07-04T08:02:42;23.60;98.10
15160;DHT22;7680;48.800;9.680;2022-07-04T08:05:33;23.50;98.40
15160;DHT22;7680;48.800;9.680;2022-07-04T08:08:06;23.30;98.70
15160;DHT22;7680;48.800;9.680;2022-07-04T08:10:41;23.10;99.30
15160;DHT22;7680;48.800;9.680;2022-07-04T08:13:15;23.20;99.00
15160;DHT22;7680;48.800;9.680;2022-07-04T08:15:48;23.20;99.20
15160;DHT22;7680;48.800;9.680;2022-07-04T08:18:22;23.20;98.80
15160;DHT22;7680;48.800;9.680;2022-07-04T08:20:56;23.20;98.60
15160;DHT22;7680;48.800;9.680;2022-07-04T08:23:37;23.20;98.60
15160;DHT22;7680;48.800;9.680;2022-07-04T08:26:27;23.40;98.30
15160;DHT22;7680;48.800;9.680;2022-07-04T08:29:00;23.50;98.00
15160;DHT22;7680;48.800;9.680;2022-07-04T08:31:33;23.50;98.10
15160;DHT22;7680;48.800;9.680;2022-07-04T08:34:24;23.70;98.10
15160;DHT22;7680;48.800;9.680;2022-07-04T08:36:57;23.60;97.40
15160;DHT22;7680;48.800;9.680;2022-07-04T08:39:30;23.60;97.70
15160;DHT22;7680;48.800;9.680;2022-07-04T08:42:06;23.60;97.50
15160;DHT22;7680;48.800;9.680;2022-07-04T08:44:46;23.60;97.30
15160;DHT22;7680;48.800;9.680;2022-07-04T08:47:23;23.50;97.70
15160;DHT22;7680;48.800;9.680;2022-07-04T08:50:02;23.50;98.20
15160;DHT22;7680;48.800;9.680;2022-07-04T08:52:43;23.50;98.20
15160;DHT22;7680;48.800;9.680;2022-07-04T08:55:20;23.50;97.90
15160;DHT22;7680;48.800;9.680;2022-07-04T08:58:12;23.40;97.40
15160;DHT22;7680;48.800;9.680;2022-07-04T09:01:04;23.40;97.50
15160;DHT22;7680;48.800;9.680;2022-07-04T09:03:38;23.30;97.80
15160;DHT22;7680;48.800;9.680;2022-07-04T09:06:13;23.40;98.30
15160;DHT22;7680;48.800;9.680;2022-07-04T09:08:46;23.40;97.70
15160;DHT22;7680;48.800;9.680;2022-07-04T09:11:19;23.30;97.60
15160;DHT22;7680;48.800;9.680;2022-07-04T09:13:53;23.20;97.00
15160;DHT22;7680;48.800;9.680;2022-07-04T09:16:26;23.20;97.70
15160;DHT22;7680;48.800;9.680;2022-07-04T09:18:59;23.40;97.80
15160;DHT22;7680;48.800;9.680;2022-07-04T09:21:46;23.60;97.30
15160;DHT22;7680;48.800;9.680;2022-07-04T09:24:43;23.80;96.50
15160;DHT22;7680;48.800;9.680;2022-07-04T09:27:31;24.00;96.00
15160;DHT22;7680;48.800;9.680;2022-07-04T09:30:05;24.20;95.60
15160;DHT22;7680;48.800;9.680;2022-07-04T09:32:41;24.60;95.20
15160;DHT22;7680;48.800;9.680;2022-07-04T09:35:17;24.90;94.20
15160;DHT22;7680;48.800;9.680;2022-07-04T09:37:55;25.00;94.50
15160;DHT22;7680;48.800;9.680;2022-07-04T09:40:31;25.10;94.10
15160;DHT22;7680;48.800;9.680;2022-07-04T09:43:11;25.40;93.50
15160;DHT22;7680;48.800;9.680;2022-07-04T09:45:53;25.50;93.10
15160;DHT22;7680;48.800;9.680;2022-07-04T09:48:47;25.50;92.70
15160;DHT22;7680;48.800;9.680;2022-07-04T09:51:36;25.80;92.10
15160;DHT22;7680;48.800;9.680;2022-07-04T09:54:20;26.00;92.10
15160;DHT22;7680;48.800;9.680;2022-07-04T09:56:58;26.20;92.00
15160;DHT22;7680;48.800;9.680;2022-07-04T09:59:32;26.20;92.10
15160;DHT22;7680;48.800;9.680;2022-07-04T10:02:08;26.50;92.00
15160;DHT22;7680;48.800;9.680;2022-07-04T10:04:43;26.40;92.10
15160;DHT22;7680;48.800;9.680;2022-07-04T10:07:32;26.40;91.80
15160;DHT22;7680;48.800;9.680;2022-07-04T10:10:29;26.40;92.30
15160;DHT22;7680;48.800;9.680;2022-07-04T10:13:06;26.70;91.80
15160;DHT22;7680;48.800;9.680;2022-07-04T10:15:42;26.80;91.60
15160;DHT22;7680;48.800;9.680;2022-07-04T10:18:18;26.90;91.20
15160;DHT22;7680;48.800;9.680;2022-07-04T10:20:54;26.90;91.40
15160;DHT22;7680;48.800;9.680;2022-07-04T10:23:28;27.10;90.70
15160;DHT22;7680;48.800;9.680;2022-07-04T10:26:05;27.10;90.40
15160;DHT22;7680;48.800;9.680;2022-07-04T10:28:40;27.20;90.00
15160;DHT22;7680;48.800;9.680;2022-07-04T10:31:22;27.30;88.60
15160;DHT22;7680;48.800;9.680;2022-07-04T10:33:58;27.50;86.70
15160;DHT22;7680;48.800;9.680;2022-07-04T10:36:33;27.50;83.30
15160;DHT22;7680;48.800;9.680;2022-07-04T10:39:07;27.40;84.20
15160;DHT22;7680;48.800;9.680;2022-07-04T10:41:56;27.60;80.10
15160;DHT22;7680;48.800;9.680;2022-07-04T10:44:32;27.80;83.00
15160;DHT22;7680;48.800;9.680;2022-07-04T10:47:21;27.90;80.00
15160;DHT22;7680;48.800;9.680;2022-07-04T10:49:59;27.80;82.10
15160;DHT22;7680;48.800;9.680;2022-07-04T10:52:33;27.70;83.40
15160;DHT22;7680;48.800;9.680;2022-07-04T10:55:12;27.30;84.40
15160;DHT22;7680;48.800;9.680;2022-07-04T10:57:48;27.00;84.10
15160;DHT22;7680;48.800;9.680;2022-07-04T11:00:21;26.90;82.90
15160;DHT22;7680;48.800;9.680;2022-07-04T11:03:15;26.70;85.10
15160;DHT22;7680;48.800;9.680;2022-07-04T11:05:49;26.60;86.80
15160;DHT22;7680;48.800;9.680;2022-07-04T11:08:23;26.80;85.30
15160;DHT22;7680;48.800;9.680;2022-07-04T11:10:57;26.70;87.40
15160;DHT22;7680;48.800;9.680;2022-07-04T11:13:38;26.80;88.20
15160;DHT22;7680;48.800;9.680;2022-07-04T11:16:11;26.70;86.80
15160;DHT22;7680;48.800;9.680;2022-07-04T11:18:45;26.60;87.10
15160;DHT22;7680;48.800;9.680;2022-07-04T11:21:22;26.50;88.10
15160;DHT22;7680;48.800;9.680;2022-07-04T11:23:56;26.50;87.40
15160;DHT22;7680;48.800;9.680;2022-07-04T11:26:30;26.50;88.90
15160;DHT22;7680;48.800;9.680;2022-07-04T11:29:04;26.40;87.80
15160;DHT22;7680;48.800;9.680;2022-07-04T11:31:39;26.60;86.90
15160;DHT22;7680;48.800;9.680;2022-07-04T11:34:13;26.70;86.00
15160;DHT22;7680;48.800;9.680;2022-07-04T11:36:48;26.60;85.70
15160;DHT22;7680;48.800;9.680;2022-07-04T11:39:22;26.70;86.30
15160;DHT22;7680;48.800;9.680;2022-07-04T11:41:55;26.70;85.60
15160;DHT22;7680;48.800;9.680;2022-07-04T11:44:48;26.60;85.60
15160;DHT22;7680;48.800;9.680;2022-07-04T11:47:41;26.50;85.10
15160;DHT22;7680;48.800;9.680;2022-07-04T11:50:16;26.40;86.70
15160;DHT22;7680;48.800;9.680;2022-07-04T11:52:50;26.40;87.70
15160;DHT22;7680;48.800;9.680;2022-07-04T11:55:52;26.40;85.20
15160;DHT22;7680;48.800;9.680;2022-07-04T11:58:25;26.40;87.90
15160;DHT22;7680;48.800;9.680;2022-07-04T12:01:00;26.50;86.50
15160;DHT22;7680;48.800;9.680;2022-07-04T12:03:33;26.70;86.90
15160;DHT22;7680;48.800;9.680;2022-07-04T12:06:06;26.70;86.40
15160;DHT22;7680;48.800;9.680;2022-07-04T12:08:46;26.60;86.10
15160;DHT22;7680;48.800;9.680;2022-07-04T12:11:53;26.60;88.20
15160;DHT22;7680;48.800;9.680;2022-07-04T12:14:27;26.40;85.30
15160;DHT22;7680;48.800;9.680;2022-07-04T12:17:16;26.50;84.00
15160;DHT22;7680;48.800;9.680;2022-07-04T12:19:52;26.50;83.40
15160;DHT22;7680;48.800;9.680;2022-07-04T12:22:33;26.50;84.60
15160;DHT22;7680;48.800;9.680;2022-07-04T12:25:19;26.50;85.40
15160;DHT22;7680;48.800;9.680;2022-07-04T12:27:56;26.60;85.40
15160;DHT22;7680;48.800;9.680;2022-07-04T12:30:32;26.60;85.60
15160;DHT22;7680;48.800;9.680;2022-07-04T12:33:09;26.40;84.70
15160;DHT22;7680;48.800;9.680;2022-07-04T12:35:44;26.20;85.50
15160;DHT22;7680;48.800;9.680;2022-07-04T12:38:21;26.30;84.90
15160;DHT22;7680;48.800;9.680;2022-07-04T12:40:59;26.30;85.10
15160;DHT22;7680;48.800;9.680;2022-07-04T12:43:47;26.40;84.20
15160;DHT22;7680;48.800;9.680;2022-07-04T12:46:31;26.40;85.40
15160;DHT22;7680;48.800;9.680;2022-07-04T12:49:17;26.40;84.70
15160;DHT22;7680;48.800;9.680;2022-07-04T12:51:50;26.30;85.20
15160;DHT22;7680;48.800;9.680;2022-07-04T12:54:24;26.40;86.90
15160;DHT22;7680;48.800;9.680;2022-07-04T12:57:04;26.40;87.10
15160;DHT22;7680;48.800;9.680;2022-07-04T12:59:40;26.30;85.00
15160;DHT22;7680;48.800;9.680;2022-07-04T13:02:14;26.30;86.40
15160;DHT22;7680;48.800;9.680;2022-07-04T13:04:48;26.30;85.30
15160;DHT22;7680;48.800;9.680;2022-07-04T13:07:21;26.10;85.80
15160;DHT22;7680;48.800;9.680;2022-07-04T13:09:55;26.30;87.90
15160;DHT22;7680;48.800;9.680;2022-07-04T13:12:28;26.60;87.40
15160;DHT22;7680;48.800;9.680;2022-07-04T13:15:01;26.70;87.00
15160;DHT22;7680;48.800;9.680;2022-07-04T13:17:36;26.80;87.60
15160;DHT22;7680;48.800;9.680;2022-07-04T13:20:11;27.00;87.00
15160;DHT22;7680;48.800;9.680;2022-07-04T13:22:45;26.80;85.40
15160;DHT22;7680;48.800;9.680;2022-07-04T13:25:18;26.70;84.70
15160;DHT22;7680;48.800;9.680;2022-07-04T13:27:53;26.60;87.10
15160;DHT22;7680;48.800;9.680;2022-07-04T13:30:26;26.60;87.40
15160;DHT22;7680;48.800;9.680;2022-07-04T13:33:00;26.60;87.70
15160;DHT22;7680;48.800;9.680;2022-07-04T13:35:34;26.70;86.50
15160;DHT22;7680;48.800;9.680;2022-07-04T13:38:08;26.60;85.50
15160;DHT22;7680;48.800;9.680;2022-07-04T13:40:41;26.70;85.50
15160;DHT22;7680;48.800;9.680;2022-07-04T13:43:16;26.70;83.30
15160;DHT22;7680;48.800;9.680;2022-07-04T13:45:49;26.60;85.80
15160;DHT22;7680;48.800;9.680;2022-07-04T13:48:22;26.60;85.90
15160;DHT22;7680;48.800;9.680;2022-07-04T13:50:57;26.70;86.00
15160;DHT22;7680;48.800;9.680;2022-07-04T13:53:30;26.80;85.00
15160;DHT22;7680;48.800;9.680;2022-07-04T13:56:05;26.80;87.20
15160;DHT22;7680;48.800;9.680;2022-07-04T13:58:39;27.00;85.20
15160;DHT22;7680;48.800;9.680;2022-07-04T14:01:12;26.90;81.80
15160;DHT22;7680;48.800;9.680;2022-07-04T14:03:48;26.80;82.40
15160;DHT22;7680;48.800;9.680;2022-07-04T14:06:23;26.80;82.90
15160;DHT22;7680;48.800;9.680;2022-07-04T14:08:56;26.90;86.20
15160;DHT22;7680;48.800;9.680;2022-07-04T14:11:29;27.10;84.00
15160;DHT22;7680;48.800;9.680;2022-07-04T14:14:03;27.10;82.20
15160;DHT22;7680;48.800;9.680;2022-07-04T14:16:36;27.00;82.00
15160;DHT22;7680;48.800;9.680;2022-07-04T14:19:09;27.10;82.50
15160;DHT22;7680;48.800;9.680;2022-07-04T14:21:43;27.00;81.60
15160;DHT22;7680;48.800;9.680;2022-07-04T14:24:17;27.20;81.80
15160;DHT22;7680;48.800;9.680;2022-07-04T14:26:55;27.20;82.90
15160;DHT22;7680;48.800;9.680;2022-07-04T14:29:28;27.20;80.30
15160;DHT22;7680;48.800;9.680;2022-07-04T14:32:02;27.10;80.10
15160;DHT22;7680;48.800;9.680;2022-07-04T14:34:35;27.10;80.80
15160;DHT22;7680;48.800;9.680;2022-07-04T14:37:10;27.10;79.80
15160;DHT22;7680;48.800;9.680;2022-07-04T14:39:43;27.00;81.60
15160;DHT22;7680;48.800;9.680;2022-07-04T14:42:16;26.90;80.10
15160;DHT22;7680;48.800;9.680;2022-07-04T14:44:49;26.80;80.00
15160;DHT22;7680;48.800;9.680;2022-07-04T14:47:22;26.90;78.40
15160;DHT22;7680;48.800;9.680;2022-07-04T14:49:55;26.80;76.40
15160;DHT22;7680;48.800;9.680;2022-07-04T14:52:30;26.70;76.30
15160;DHT22;7680;48.800;9.680;2022-07-04T14:55:04;26.60;78.80
15160;DHT22;7680;48.800;9.680;2022-07-04T14:57:38;26.60;80.60
15160;DHT22;7680;48.800;9.680;2022-07-04T15:00:12;26.60;80.00
15160;DHT22;7680;48.800;9.680;2022-07-04T15:02:46;26.70;80.80
15160;DHT22;7680;48.800;9.680;2022-07-04T15:05:22;26.70;80.60
15160;DHT22;7680;48.800;9.680;2022-07-04T15:07:56;26.80;81.90
15160;DHT22;7680;48.800;9.680;2022-07-04T15:10:29;26.60;78.70
15160;DHT22;7680;48.800;9.680;2022-07-04T15:13:22;26.60;78.00
15160;DHT22;7680;48.800;9.680;2022-07-04T15:15:57;26.50;77.20
15160;DHT22;7680;48.800;9.680;2022-07-04T15:18:50;26.40;74.70
15160;DHT22;7680;48.800;9.680;2022-07-04T15:21:23;26.40;75.70
15160;DHT22;7680;48.800;9.680;2022-07-04T15:24:15;26.40;76.70
15160;DHT22;7680;48.800;9.680;2022-07-04T15:26:50;26.40;78.00
15160;DHT22;7680;48.800;9.680;2022-07-04T15:29:23;26.40;79.70
15160;DHT22;7680;48.800;9.680;2022-07-04T15:31:57;26.30;80.30
15160;DHT22;7680;48.800;9.680;2022-07-04T15:34:30;26.30;80.30
15160;DHT22;7680;48.800;9.680;2022-07-04T15:37:04;26.30;81.70
15160;DHT22;7680;48.800;9.680;2022-07-04T15:39:38;26.20;80.90
15160;DHT22;7680;48.800;9.680;2022-07-04T15:42:11;26.20;81.40
15160;DHT22;7680;48.800;9.680;2022-07-04T15:44:44;26.30;80.50
15160;DHT22;7680;48.800;9.680;2022-07-04T15:47:17;26.30;79.20
15160;DHT22;7680;48.800;9.680;2022-07-04T15:49:50;26.30;80.90
15160;DHT22;7680;48.800;9.680;2022-07-04T15:52:24;26.20;81.30
15160;DHT22;7680;48.800;9.680;2022-07-04T15:55:00;26.30;80.90
15160;DHT22;7680;48.800;9.680;2022-07-04T15:57:33;26.30;79.30
15160;DHT22;7680;48.800;9.680;2022-07-04T16:00:07;26.30;79.40
15160;DHT22;7680;48.800;9.680;2022-07-04T16:02:41;26.30;79.00
15160;DHT22;7680;48.800;9.680;2022-07-04T16:05:15;26.30;79.10
15160;DHT22;7680;48.800;9.680;2022-07-04T16:07:48;26.20;79.10
15160;DHT22;7680;48.800;9.680;2022-07-04T16:10:22;26.20;80.60
15160;DHT22;7680;48.800;9.680;2022-07-04T16:12:55;26.10;80.00
15160;DHT22;7680;48.800;9.680;2022-07-04T16:15:29;26.10;80.00
15160;DHT22;7680;48.800;9.680;2022-07-04T16:18:03;26.20;81.60
15160;DHT22;7680;48.800;9.680;2022-07-04T16:20:36;26.20;81.20
15160;DHT22;7680;48.800;9.680;2022-07-04T16:23:10;26.20;82.60
15160;DHT22;7680;48.800;9.680;2022-07-04T16:25:44;26.20;82.70
15160;DHT22;7680;48.800;9.680;2022-07-04T16:28:17;26.10;80.80
15160;DHT22;7680;48.800;9.680;2022-07-04T16:30:50;26.10;82.20
15160;DHT22;7680;48.800;9.680;2022-07-04T16:33:24;26.20;82.40
15160;DHT22;7680;48.800;9.680;2022-07-04T16:35:58;26.10;83.40
15160;DHT22;7680;48.800;9.680;2022-07-04T16:38:31;26.10;82.40